sensor_id;sensor_type;location;lat;lon;timestamp;P1;durP1;ratioP1;P2;durP2;ratioP2
16689;SDS011;8458;52.220;9.884;2022-12-29T00:01:20;1.03;;;0.90;;
16689;SDS011;8458;52.220;9.884;2022-12-29T00:03:47;1.17;;;0.70;;
16689;SDS011;8458;52.220;9.884;2022-12-29T00:06:14;0.70;;;0.70;;
16689;SDS011;8458;52.220;9.884;2022-12-29T00:08:40;0.60;;;0.60;;
16689;SDS011;8458;52.220;9.884;2022-12-29T00:11:07;1.60;;;0.77;;
16689;SDS011;8458;52.220;9.884;2022-12-29T00:13:37;0.60;;;0.53;;
16689;SDS011;8458;52.220;9.884;2022-12-29T00:16:21;0.63;;;0.63;;
16689;SDS011;8458;52.220;9.884;2022-12-29T00:18:47;0.90;;;0.70;;
16689;SDS011;8458;52.220;9.884;2022-12-29T00:21:14;0.60;;;0.60;;
16689;SDS011;8458;52.220;9.884;2022-12-29T00:24:00;0.50;;;0.50;;
16689;SDS011;8458;52.220;9.884;2022-12-29T00:26:53;0.97;;;0.57;;
16689;SDS011;8458;52.220;9.884;2022-12-29T00:29:42;1.00;;;0.60;;
16689;SDS011;8458;52.220;9.884;2022-12-29T00:32:26;1.43;;;0.70;;
16689;SDS011;8458;52.220;9.884;2022-12-29T00:35:11;0.53;;;0.53;;
16689;SDS011;8458;52.220;9.884;2022-12-29T00:37:45;0.80;;;0.70;;
16689;SDS011;8458;52.220;9.884;2022-12-29T00:40:45;0.60;;;0.60;;
16689;SDS011;8458;52.220;9.884;2022-12-29T00:43:29;1.03;;;0.60;;
16689;SDS011;8458;52.220;9.884;2022-12-29T00:46:14;0.93;;;0.60;;
16689;SDS011;8458;52.220;9.884;2022-12-29T00:48:41;1.27;;;0.60;;
16689;SDS011;8458;52.220;9.884;2022-12-29T00:51:25;1.23;;;0.50;;
16689;SDS011;8458;52.220;9.884;2022-12-29T00:53:51;1.10;;;0.60;;
16689;SDS011;8458;52.220;9.884;2022-12-29T00:56:17;1.17;;;0.50;;
16689;SDS011;8458;52.220;9.884;2022-12-29T00:58:44;1.10;;;0.50;;
16689;SDS011;8458;52.220;9.884;2022-12-29T01:01:11;0.60;;;0.60;;
16689;SDS011;8458;52.220;9.884;2022-12-29T01:03:39;0.40;;;0.40;;
16689;SDS011;8458;52.220;9.884;2022-12-29T01:06:06;1.07;;;0.50;;
16689;SDS011;8458;52.220;9.884;2022-12-29T01:08:34;1.23;;;0.70;;
16689;SDS011;8458;52.220;9.884;2022-12-29T01:11:01;0.67;;;0.50;;
16689;SDS011;8458;52.220;9.884;2022-12-29T01:13:29;0.50;;;0.50;;
16689;SDS011;8458;52.220;9.884;2022-12-29T01:15:56;0.50;;;0.50;;
16689;SDS011;8458;52.220;9.884;2022-12-29T01:18:23;1.17;;;0.50;;
16689;SDS011;8458;52.220;9.884;2022-12-29T01:20:52;0.50;;;0.50;;
16689;SDS011;8458;52.220;9.884;2022-12-29T01:23:24;0.63;;;0.50;;
16689;SDS011;8458;52.220;9.884;2022-12-29T01:25:51;1.13;;;0.60;;
16689;SDS011;8458;52.220;9.884;2022-12-29T01:28:17;1.07;;;0.53;;
16689;SDS011;8458;52.220;9.884;2022-12-29T01:30:44;0.93;;;0.53;;
16689;SDS011;8458;52.220;9.884;2022-12-29T01:33:10;0.70;;;0.70;;
16689;SDS011;8458;52.220;9.884;2022-12-29T01:35:36;0.93;;;0.57;;
16689;SDS011;8458;52.220;9.884;2022-12-29T01:38:04;0.60;;;0.60;;
16689;SDS011;8458;52.220;9.884;2022-12-29T01:40:31;0.87;;;0.50;;
16689;SDS011;8458;52.220;9.884;2022-12-29T01:42:58;1.07;;;0.60;;
16689;SDS011;8458;52.220;9.884;2022-12-29T01:45:24;1.90;;;0.70;;
16689;SDS011;8458;52.220;9.884;2022-12-29T01:47:52;0.53;;;0.50;;
16689;SDS011;8458;52.220;9.884;2022-12-29T01:50:22;0.50;;;0.50;;
16689;SDS011;8458;52.220;9.884;2022-12-29T01:52:55;0.83;;;0.40;;
16689;SDS011;8458;52.220;9.884;2022-12-29T01:55:26;0.73;;;0.50;;
16689;SDS011;8458;52.220;9.884;2022-12-29T01:57:55;0.47;;;0.47;;
16689;SDS011;8458;52.220;9.884;2022-12-29T02:00:24;0.63;;;0.60;;
16689;SDS011;8458;52.220;9.884;2022-12-29T02:02:51;0.67;;;0.40;;
16689;SDS011;8458;52.220;9.884;2022-12-29T02:05:21;0.60;;;0.50;;
16689;SDS011;8458;52.220;9.884;2022-12-29T02:07:53;0.50;;;0.50;;
16689;SDS011;8458;52.220;9.884;2022-12-29T02:10:20;0.40;;;0.40;;
16689;SDS011;8458;52.220;9.884;2022-12-29T02:12:50;0.50;;;0.50;;
16689;SDS011;8458;52.220;9.884;2022-12-29T02:15:18;0.50;;;0.50;;
16689;SDS011;8458;52.220;9.884;2022-12-29T02:18:02;0.67;;;0.43;;
16689;SDS011;8458;52.220;9.884;2022-12-29T02:23:39;0.50;;;0.30;;
16689;SDS011;8458;52.220;9.884;2022-12-29T02:26:25;0.40;;;0.40;;
16689;SDS011;8458;52.220;9.884;2022-12-29T02:32:17;0.40;;;0.40;;
16689;SDS011;8458;52.220;9.884;2022-12-29T02:34:53;0.83;;;0.40;;
16689;SDS011;8458;52.220;9.884;2022-12-29T02:37:28;0.33;;;0.33;;
16689;SDS011;8458;52.220;9.884;2022-12-29T02:40:02;0.47;;;0.33;;
16689;SDS011;8458;52.220;9.884;2022-12-29T02:42:40;0.37;;;0.30;;
16689;SDS011;8458;52.220;9.884;2022-12-29T02:45:15;1.13;;;0.40;;
16689;SDS011;8458;52.220;9.884;2022-12-29T02:47:49;0.40;;;0.40;;
16689;SDS011;8458;52.220;9.884;2022-12-29T02:50:24;0.40;;;0.40;;
16689;SDS011;8458;52.220;9.884;2022-12-29T02:52:54;0.30;;;0.30;;
16689;SDS011;8458;52.220;9.884;2022-12-29T02:55:24;1.33;;;0.60;;
16689;SDS011;8458;52.220;9.884;2022-12-29T02:58:02;0.40;;;0.40;;
16689;SDS011;8458;52.220;9.884;2022-12-29T03:00:43;0.37;;;0.37;;
16689;SDS011;8458;52.220;9.884;2022-12-29T03:03:36;0.50;;;0.50;;
16689;SDS011;8458;52.220;9.884;2022-12-29T03:06:23;0.40;;;0.40;;
16689;SDS011;8458;52.220;9.884;2022-12-29T03:09:00;0.60;;;0.50;;
16689;SDS011;8458;52.220;9.884;2022-12-29T03:11:32;0.40;;;0.40;;
16689;SDS011;8458;52.220;9.884;2022-12-29T03:14:23;0.43;;;0.43;;
16689;SDS011;8458;52.220;9.884;2022-12-29T03:17:15;1.17;;;0.50;;
16689;SDS011;8458;52.220;9.884;2022-12-29T03:19:51;0.50;;;0.40;;
16689;SDS011;8458;52.220;9.884;2022-12-29T03:22:26;4.87;;;0.63;;
16689;SDS011;8458;52.220;9.884;2022-12-29T03:24:57;0.70;;;0.50;;
16689;SDS011;8458;52.220;9.884;2022-12-29T03:27:27;0.67;;;0.50;;
16689;SDS011;8458;52.220;9.884;2022-12-29T03:29:57;0.63;;;0.53;;
16689;SDS011;8458;52.220;9.884;2022-12-29T03:32:28;0.50;;;0.50;;
16689;SDS011;8458;52.220;9.884;2022-12-29T03:34:59;0.50;;;0.50;;
16689;SDS011;8458;52.220;9.884;2022-12-29T03:37:28;0.60;;;0.60;;
16689;SDS011;8458;52.220;9.884;2022-12-29T03:40:01;0.40;;;0.40;;
16689;SDS011;8458;52.220;9.884;2022-12-29T03:42:29;1.07;;;0.50;;
16689;SDS011;8458;52.220;9.884;2022-12-29T03:44:59;1.23;;;0.60;;
16689;SDS011;8458;52.220;9.884;2022-12-29T03:47:26;0.50;;;0.50;;
16689;SDS011;8458;52.220;9.884;2022-12-29T03:49:53;0.57;;;0.57;;
16689;SDS011;8458;52.220;9.884;2022-12-29T03:52:20;0.40;;;0.40;;
16689;SDS011;8458;52.220;9.884;2022-12-29T03:54:47;0.47;;;0.40;;
16689;SDS011;8458;52.220;9.884;2022-12-29T03:57:14;0.70;;;0.50;;
16689;SDS011;8458;52.220;9.884;2022-12-29T03:59:40;0.63;;;0.50;;
16689;SDS011;8458;52.220;9.884;2022-12-29T04:02:07;0.93;;;0.40;;
16689;SDS011;8458;52.220;9.884;2022-12-29T04:04:33;0.40;;;0.40;;
16689;SDS011;8458;52.220;9.884;2022-12-29T04:07:00;0.47;;;0.30;;
16689;SDS011;8458;52.220;9.884;2022-12-29T04:09:27;0.60;;;0.60;;
16689;SDS011;8458;52.220;9.884;2022-12-29T04:11:54;0.40;;;0.40;;
16689;SDS011;8458;52.220;9.884;2022-12-29T04:14:21;0.40;;;0.40;;
16689;SDS011;8458;52.220;9.884;2022-12-29T04:16:47;0.50;;;0.40;;
16689;SDS011;8458;52.220;9.884;2022-12-29T04:19:14;0.43;;;0.33;;
16689;SDS011;8458;52.220;9.884;2022-12-29T04:21:40;0.37;;;0.37;;
16689;SDS011;8458;52.220;9.884;2022-12-29T04:24:07;0.30;;;0.30;;
16689;SDS011;8458;52.220;9.884;2022-12-29T04:26:35;0.60;;;0.30;;
16689;SDS011;8458;52.220;9.884;2022-12-29T04:29:01;0.30;;;0.30;;
16689;SDS011;8458;52.220;9.884;2022-12-29T04:31:27;0.77;;;0.30;;
16689;SDS011;8458;52.220;9.884;2022-12-29T04:33:54;0.40;;;0.40;;
16689;SDS011;8458;52.220;9.884;2022-12-29T04:36:22;0.40;;;0.40;;
16689;SDS011;8458;52.220;9.884;2022-12-29T04:38:48;0.30;;;0.30;;
16689;SDS011;8458;52.220;9.884;2022-12-29T04:41:15;0.50;;;0.40;;
16689;SDS011;8458;52.220;9.884;2022-12-29T04:43:43;0.20;;;0.20;;
16689;SDS011;8458;52.220;9.884;2022-12-29T04:46:09;0.57;;;0.40;;
16689;SDS011;8458;52.220;9.884;2022-12-29T04:48:35;0.20;;;0.20;;
16689;SDS011;8458;52.220;9.884;2022-12-29T04:51:02;0.57;;;0.33;;
16689;SDS011;8458;52.220;9.884;2022-12-29T04:53:29;0.20;;;0.20;;
16689;SDS011;8458;52.220;9.884;2022-12-29T04:55:55;0.30;;;0.20;;
16689;SDS011;8458;52.220;9.884;2022-12-29T04:58:22;1.00;;;0.30;;
16689;SDS011;8458;52.220;9.884;2022-12-29T05:00:49;0.20;;;0.20;;
16689;SDS011;8458;52.220;9.884;2022-12-29T05:03:16;0.33;;;0.30;;
16689;SDS011;8458;52.220;9.884;2022-12-29T05:05:42;0.30;;;0.20;;
16689;SDS011;8458;52.220;9.884;2022-12-29T05:08:09;0.20;;;0.20;;
16689;SDS011;8458;52.220;9.884;2022-12-29T05:10:35;0.40;;;0.30;;
16689;SDS011;8458;52.220;9.884;2022-12-29T05:13:02;0.50;;;0.40;;
16689;SDS011;8458;52.220;9.884;2022-12-29T05:15:28;0.20;;;0.20;;
16689;SDS011;8458;52.220;9.884;2022-12-29T05:17:56;0.33;;;0.20;;
16689;SDS011;8458;52.220;9.884;2022-12-29T05:20:22;0.23;;;0.23;;
16689;SDS011;8458;52.220;9.884;2022-12-29T05:22:49;0.37;;;0.20;;
16689;SDS011;8458;52.220;9.884;2022-12-29T05:25:15;0.97;;;0.20;;
16689;SDS011;8458;52.220;9.884;2022-12-29T05:27:42;0.10;;;0.10;;
16689;SDS011;8458;52.220;9.884;2022-12-29T05:30:09;0.30;;;0.20;;
16689;SDS011;8458;52.220;9.884;2022-12-29T05:32:36;0.27;;;0.10;;
16689;SDS011;8458;52.220;9.884;2022-12-29T05:35:04;0.50;;;0.50;;
16689;SDS011;8458;52.220;9.884;2022-12-29T05:37:31;0.17;;;0.17;;
16689;SDS011;8458;52.220;9.884;2022-12-29T05:39:57;0.30;;;0.30;;
16689;SDS011;8458;52.220;9.884;2022-12-29T05:42:24;0.30;;;0.30;;
16689;SDS011;8458;52.220;9.884;2022-12-29T05:44:50;0.20;;;0.20;;
16689;SDS011;8458;52.220;9.884;2022-12-29T05:47:18;0.10;;;0.10;;
16689;SDS011;8458;52.220;9.884;2022-12-29T05:49:45;0.43;;;0.20;;
16689;SDS011;8458;52.220;9.884;2022-12-29T05:52:13;0.50;;;0.40;;
16689;SDS011;8458;52.220;9.884;2022-12-29T05:54:39;0.20;;;0.20;;
16689;SDS011;8458;52.220;9.884;2022-12-29T05:57:05;0.20;;;0.10;;
16689;SDS011;8458;52.220;9.884;2022-12-29T05:59:32;0.77;;;0.20;;
16689;SDS011;8458;52.220;9.884;2022-12-29T06:01:58;0.67;;;0.23;;
16689;SDS011;8458;52.220;9.884;2022-12-29T06:04:25;0.57;;;0.20;;
16689;SDS011;8458;52.220;9.884;2022-12-29T06:06:52;0.63;;;0.30;;
16689;SDS011;8458;52.220;9.884;2022-12-29T06:09:19;0.40;;;0.20;;
16689;SDS011;8458;52.220;9.884;2022-12-29T06:11:46;0.20;;;0.10;;
16689;SDS011;8458;52.220;9.884;2022-12-29T06:14:12;0.30;;;0.30;;
16689;SDS011;8458;52.220;9.884;2022-12-29T06:16:39;0.23;;;0.20;;
16689;SDS011;8458;52.220;9.884;2022-12-29T06:19:06;0.20;;;0.20;;
16689;SDS011;8458;52.220;9.884;2022-12-29T06:21:33;0.20;;;0.20;;
16689;SDS011;8458;52.220;9.884;2022-12-29T06:23:59;0.27;;;0.10;;
16689;SDS011;8458;52.220;9.884;2022-12-29T06:26:27;0.50;;;0.20;;
16689;SDS011;8458;52.220;9.884;2022-12-29T06:28:54;0.20;;;0.20;;
16689;SDS011;8458;52.220;9.884;2022-12-29T06:31:21;0.30;;;0.20;;
16689;SDS011;8458;52.220;9.884;2022-12-29T06:33:48;0.10;;;0.10;;
16689;SDS011;8458;52.220;9.884;2022-12-29T06:36:14;0.93;;;0.20;;
16689;SDS011;8458;52.220;9.884;2022-12-29T06:38:41;0.10;;;0.10;;
16689;SDS011;8458;52.220;9.884;2022-12-29T06:41:07;0.20;;;0.20;;
16689;SDS011;8458;52.220;9.884;2022-12-29T06:43:35;0.10;;;0.10;;
16689;SDS011;8458;52.220;9.884;2022-12-29T06:46:03;0.30;;;0.30;;
16689;SDS011;8458;52.220;9.884;2022-12-29T06:48:30;0.20;;;0.20;;
16689;SDS011;8458;52.220;9.884;2022-12-29T06:50:56;0.10;;;0.10;;
16689;SDS011;8458;52.220;9.884;2022-12-29T06:53:22;0.10;;;0.10;;
16689;SDS011;8458;52.220;9.884;2022-12-29T06:55:49;0.20;;;0.10;;
16689;SDS011;8458;52.220;9.884;2022-12-29T06:58:15;0.10;;;0.10;;
16689;SDS011;8458;52.220;9.884;2022-12-29T07:00:43;0.10;;;0.10;;
16689;SDS011;8458;52.220;9.884;2022-12-29T07:03:10;0.00;;;0.00;;
16689;SDS011;8458;52.220;9.884;2022-12-29T07:05:36;0.40;;;0.10;;
16689;SDS011;8458;52.220;9.884;2022-12-29T07:08:02;0.10;;;0.10;;
16689;SDS011;8458;52.220;9.884;2022-12-29T07:10:29;0.63;;;0.63;;
16689;SDS011;8458;52.220;9.884;2022-12-29T07:12:56;0.10;;;0.10;;
16689;SDS011;8458;52.220;9.884;2022-12-29T07:15:22;0.17;;;0.10;;
16689;SDS011;8458;52.220;9.884;2022-12-29T07:17:50;0.20;;;0.10;;
16689;SDS011;8458;52.220;9.884;2022-12-29T07:20:17;0.10;;;0.10;;
16689;SDS011;8458;52.220;9.884;2022-12-29T07:22:43;0.60;;;0.20;;
16689;SDS011;8458;52.220;9.884;2022-12-29T07:25:12;0.13;;;0.13;;
16689;SDS011;8458;52.220;9.884;2022-12-29T07:27:38;0.77;;;0.20;;
16689;SDS011;8458;52.220;9.884;2022-12-29T07:30:05;0.50;;;0.30;;
16689;SDS011;8458;52.220;9.884;2022-12-29T07:32:32;0.30;;;0.20;;
16689;SDS011;8458;52.220;9.884;2022-12-29T07:35:00;0.57;;;0.20;;
16689;SDS011;8458;52.220;9.884;2022-12-29T07:37:27;0.20;;;0.20;;
16689;SDS011;8458;52.220;9.884;2022-12-29T07:39:53;0.37;;;0.20;;
16689;SDS011;8458;52.220;9.884;2022-12-29T07:42:19;0.10;;;0.10;;
16689;SDS011;8458;52.220;9.884;2022-12-29T07:44:46;0.00;;;0.00;;
16689;SDS011;8458;52.220;9.884;2022-12-29T07:47:12;0.50;;;0.10;;
16689;SDS011;8458;52.220;9.884;2022-12-29T07:49:39;0.10;;;0.10;;
16689;SDS011;8458;52.220;9.884;2022-12-29T07:52:07;0.10;;;0.10;;
16689;SDS011;8458;52.220;9.884;2022-12-29T07:54:33;0.40;;;0.30;;
16689;SDS011;8458;52.220;9.884;2022-12-29T07:56:59;0.20;;;0.20;;
16689;SDS011;8458;52.220;9.884;2022-12-29T07:59:26;0.20;;;0.20;;
16689;SDS011;8458;52.220;9.884;2022-12-29T08:01:53;0.27;;;0.20;;
16689;SDS011;8458;52.220;9.884;2022-12-29T08:04:19;0.30;;;0.20;;
16689;SDS011;8458;52.220;9.884;2022-12-29T08:06:46;0.30;;;0.20;;
16689;SDS011;8458;52.220;9.884;2022-12-29T08:09:14;0.23;;;0.20;;
16689;SDS011;8458;52.220;9.884;2022-12-29T08:11:40;0.87;;;0.30;;
16689;SDS011;8458;52.220;9.884;2022-12-29T08:14:07;0.20;;;0.20;;
16689;SDS011;8458;52.220;9.884;2022-12-29T08:16:34;0.30;;;0.30;;
16689;SDS011;8458;52.220;9.884;2022-12-29T08:19:01;1.23;;;0.17;;
16689;SDS011;8458;52.220;9.884;2022-12-29T08:21:28;1.23;;;0.10;;
16689;SDS011;8458;52.220;9.884;2022-12-29T08:23:55;0.37;;;0.30;;
16689;SDS011;8458;52.220;9.884;2022-12-29T08:26:23;0.60;;;0.20;;
16689;SDS011;8458;52.220;9.884;2022-12-29T08:28:51;0.40;;;0.30;;
16689;SDS011;8458;52.220;9.884;2022-12-29T08:31:18;0.23;;;0.23;;
16689;SDS011;8458;52.220;9.884;2022-12-29T08:33:44;0.47;;;0.20;;
16689;SDS011;8458;52.220;9.884;2022-12-29T08:36:11;0.20;;;0.20;;
16689;SDS011;8458;52.220;9.884;2022-12-29T08:38:37;0.20;;;0.20;;
16689;SDS011;8458;52.220;9.884;2022-12-29T08:41:04;0.33;;;0.20;;
16689;SDS011;8458;52.220;9.884;2022-12-29T08:43:32;0.70;;;0.13;;
16689;SDS011;8458;52.220;9.884;2022-12-29T08:45:58;0.60;;;0.30;;
16689;SDS011;8458;52.220;9.884;2022-12-29T08:48:25;0.40;;;0.40;;
16689;SDS011;8458;52.220;9.884;2022-12-29T08:50:52;1.60;;;0.93;;
16689;SDS011;8458;52.220;9.884;2022-12-29T08:53:18;2.10;;;0.50;;
16689;SDS011;8458;52.220;9.884;2022-12-29T08:55:45;0.37;;;0.20;;
16689;SDS011;8458;52.220;9.884;2022-12-29T08:58:12;1.20;;;0.37;;
16689;SDS011;8458;52.220;9.884;2022-12-29T09:00:41;1.67;;;0.30;;
16689;SDS011;8458;52.220;9.884;2022-12-29T09:03:07;0.80;;;0.30;;
16689;SDS011;8458;52.220;9.884;2022-12-29T09:05:33;1.10;;;0.30;;
16689;SDS011;8458;52.220;9.884;2022-12-29T09:08:00;0.60;;;0.30;;
16689;SDS011;8458;52.220;9.884;2022-12-29T09:10:26;0.43;;;0.40;;
16689;SDS011;8458;52.220;9.884;2022-12-29T09:12:53;0.80;;;0.40;;
16689;SDS011;8458;52.220;9.884;2022-12-29T09:15:19;0.30;;;0.30;;
16689;SDS011;8458;52.220;9.884;2022-12-29T09:17:47;0.70;;;0.40;;
16689;SDS011;8458;52.220;9.884;2022-12-29T09:20:14;0.50;;;0.43;;
16689;SDS011;8458;52.220;9.884;2022-12-29T09:22:43;0.77;;;0.40;;
16689;SDS011;8458;52.220;9.884;2022-12-29T09:25:11;0.30;;;0.30;;
16689;SDS011;8458;52.220;9.884;2022-12-29T09:27:39;0.93;;;0.27;;
16689;SDS011;8458;52.220;9.884;2022-12-29T09:30:07;0.30;;;0.30;;
16689;SDS011;8458;52.220;9.884;2022-12-29T09:32:36;0.53;;;0.30;;
16689;SDS011;8458;52.220;9.884;2022-12-29T09:35:04;0.30;;;0.23;;
16689;SDS011;8458;52.220;9.884;2022-12-29T09:37:31;1.33;;;0.40;;
16689;SDS011;8458;52.220;9.884;2022-12-29T09:39:57;0.67;;;0.50;;
16689;SDS011;8458;52.220;9.884;2022-12-29T09:42:25;0.93;;;0.40;;
16689;SDS011;8458;52.220;9.884;2022-12-29T09:44:58;0.33;;;0.33;;
16689;SDS011;8458;52.220;9.884;2022-12-29T09:47:30;0.97;;;0.20;;
16689;SDS011;8458;52.220;9.884;2022-12-29T09:49:58;0.37;;;0.30;;
16689;SDS011;8458;52.220;9.884;2022-12-29T09:52:30;0.33;;;0.30;;
16689;SDS011;8458;52.220;9.884;2022-12-29T09:55:04;0.50;;;0.40;;
16689;SDS011;8458;52.220;9.884;2022-12-29T09:57:36;1.00;;;0.50;;
16689;SDS011;8458;52.220;9.884;2022-12-29T10:00:08;0.30;;;0.30;;
16689;SDS011;8458;52.220;9.884;2022-12-29T10:02:42;0.40;;;0.40;;
16689;SDS011;8458;52.220;9.884;2022-12-29T10:05:21;1.17;;;0.60;;
16689;SDS011;8458;52.220;9.884;2022-12-29T10:08:00;0.47;;;0.33;;
16689;SDS011;8458;52.220;9.884;2022-12-29T10:10:38;0.40;;;0.30;;
16689;SDS011;8458;52.220;9.884;2022-12-29T10:13:13;0.40;;;0.40;;
16689;SDS011;8458;52.220;9.884;2022-12-29T10:15:54;0.70;;;0.60;;
16689;SDS011;8458;52.220;9.884;2022-12-29T10:18:34;0.90;;;0.60;;
16689;SDS011;8458;52.220;9.884;2022-12-29T10:21:22;2.07;;;0.70;;
16689;SDS011;8458;52.220;9.884;2022-12-29T10:23:57;0.40;;;0.40;;
16689;SDS011;8458;52.220;9.884;2022-12-29T10:26:30;0.87;;;0.50;;
16689;SDS011;8458;52.220;9.884;2022-12-29T10:29:02;0.53;;;0.43;;
16689;SDS011;8458;52.220;9.884;2022-12-29T10:31:32;0.80;;;0.30;;
16689;SDS011;8458;52.220;9.884;2022-12-29T10:34:03;0.70;;;0.30;;
16689;SDS011;8458;52.220;9.884;2022-12-29T10:36:41;0.70;;;0.23;;
16689;SDS011;8458;52.220;9.884;2022-12-29T10:39:16;1.93;;;0.60;;
16689;SDS011;8458;52.220;9.884;2022-12-29T10:41:48;0.67;;;0.40;;
16689;SDS011;8458;52.220;9.884;2022-12-29T10:44:17;1.33;;;0.40;;
16689;SDS011;8458;52.220;9.884;2022-12-29T10:46:46;1.60;;;0.40;;
16689;SDS011;8458;52.220;9.884;2022-12-29T10:49:19;0.43;;;0.30;;
16689;SDS011;8458;52.220;9.884;2022-12-29T10:51:46;1.10;;;0.40;;
16689;SDS011;8458;52.220;9.884;2022-12-29T10:54:19;1.97;;;0.50;;
16689;SDS011;8458;52.220;9.884;2022-12-29T10:56:53;0.87;;;0.33;;
16689;SDS011;8458;52.220;9.884;2022-12-29T10:59:25;1.23;;;0.47;;
16689;SDS011;8458;52.220;9.884;2022-12-29T11:01:58;0.90;;;0.63;;
16689;SDS011;8458;52.220;9.884;2022-12-29T11:04:34;0.73;;;0.50;;
16689;SDS011;8458;52.220;9.884;2022-12-29T11:07:07;0.90;;;0.40;;
16689;SDS011;8458;52.220;9.884;2022-12-29T11:09:37;1.53;;;0.40;;
16689;SDS011;8458;52.220;9.884;2022-12-29T11:12:17;1.40;;;0.30;;
16689;SDS011;8458;52.220;9.884;2022-12-29T11:14:46;3.00;;;0.50;;
16689;SDS011;8458;52.220;9.884;2022-12-29T11:17:14;0.83;;;0.30;;
16689;SDS011;8458;52.220;9.884;2022-12-29T11:19:42;0.60;;;0.30;;
16689;SDS011;8458;52.220;9.884;2022-12-29T11:22:12;0.63;;;0.40;;
16689;SDS011;8458;52.220;9.884;2022-12-29T11:24:45;1.80;;;0.47;;
16689;SDS011;8458;52.220;9.884;2022-12-29T11:27:14;0.77;;;0.30;;
16689;SDS011;8458;52.220;9.884;2022-12-29T11:29:43;0.57;;;0.30;;
16689;SDS011;8458;52.220;9.884;2022-12-29T11:32:11;1.30;;;0.40;;
16689;SDS011;8458;52.220;9.884;2022-12-29T11:34:39;0.70;;;0.13;;
16689;SDS011;8458;52.220;9.884;2022-12-29T11:37:06;1.50;;;0.47;;
16689;SDS011;8458;52.220;9.884;2022-12-29T11:39:38;1.77;;;0.40;;
16689;SDS011;8458;52.220;9.884;2022-12-29T11:42:14;1.43;;;0.40;;
16689;SDS011;8458;52.220;9.884;2022-12-29T11:44:43;2.97;;;0.60;;
16689;SDS011;8458;52.220;9.884;2022-12-29T11:47:12;2.40;;;0.50;;
16689;SDS011;8458;52.220;9.884;2022-12-29T11:49:49;1.87;;;0.60;;
16689;SDS011;8458;52.220;9.884;2022-12-29T11:52:20;1.63;;;0.40;;
16689;SDS011;8458;52.220;9.884;2022-12-29T11:54:48;1.37;;;0.40;;
16689;SDS011;8458;52.220;9.884;2022-12-29T11:57:17;1.17;;;0.50;;
16689;SDS011;8458;52.220;9.884;2022-12-29T11:59:48;1.20;;;0.30;;
16689;SDS011;8458;52.220;9.884;2022-12-29T12:02:27;1.90;;;0.30;;
16689;SDS011;8458;52.220;9.884;2022-12-29T12:05:04;1.33;;;0.40;;
16689;SDS011;8458;52.220;9.884;2022-12-29T12:07:39;1.50;;;0.40;;
16689;SDS011;8458;52.220;9.884;2022-12-29T12:10:20;1.17;;;0.60;;
16689;SDS011;8458;52.220;9.884;2022-12-29T12:12:56;2.33;;;0.57;;
16689;SDS011;8458;52.220;9.884;2022-12-29T12:15:30;1.17;;;0.40;;
16689;SDS011;8458;52.220;9.884;2022-12-29T12:18:04;1.77;;;0.37;;
16689;SDS011;8458;52.220;9.884;2022-12-29T12:20:38;1.03;;;0.50;;
16689;SDS011;8458;52.220;9.884;2022-12-29T12:23:12;1.40;;;0.50;;
16689;SDS011;8458;52.220;9.884;2022-12-29T12:25:47;3.73;;;0.70;;
16689;SDS011;8458;52.220;9.884;2022-12-29T12:28:26;1.27;;;0.70;;
16689;SDS011;8458;52.220;9.884;2022-12-29T12:30:59;1.07;;;0.47;;
16689;SDS011;8458;52.220;9.884;2022-12-29T12:33:31;1.17;;;0.50;;
16689;SDS011;8458;52.220;9.884;2022-12-29T12:36:09;2.90;;;0.60;;
16689;SDS011;8458;52.220;9.884;2022-12-29T12:38:52;2.87;;;0.60;;
16689;SDS011;8458;52.220;9.884;2022-12-29T12:41:22;2.43;;;0.90;;
16689;SDS011;8458;52.220;9.884;2022-12-29T12:43:59;1.47;;;0.70;;
16689;SDS011;8458;52.220;9.884;2022-12-29T12:46:36;1.73;;;0.50;;
16689;SDS011;8458;52.220;9.884;2022-12-29T12:49:26;1.30;;;0.50;;
16689;SDS011;8458;52.220;9.884;2022-12-29T12:52:06;1.57;;;0.63;;
16689;SDS011;8458;52.220;9.884;2022-12-29T12:54:42;1.00;;;0.60;;
16689;SDS011;8458;52.220;9.884;2022-12-29T12:57:22;1.23;;;0.67;;
16689;SDS011;8458;52.220;9.884;2022-12-29T13:00:00;1.07;;;0.50;;
16689;SDS011;8458;52.220;9.884;2022-12-29T13:02:34;1.20;;;0.60;;
16689;SDS011;8458;52.220;9.884;2022-12-29T13:05:19;1.70;;;0.63;;
16689;SDS011;8458;52.220;9.884;2022-12-29T13:11:02;1.93;;;0.87;;
16689;SDS011;8458;52.220;9.884;2022-12-29T13:16:41;1.93;;;0.70;;
16689;SDS011;8458;52.220;9.884;2022-12-29T13:19:14;1.93;;;0.80;;
16689;SDS011;8458;52.220;9.884;2022-12-29T13:21:56;1.43;;;0.70;;
16689;SDS011;8458;52.220;9.884;2022-12-29T13:24:32;1.20;;;0.70;;
16689;SDS011;8458;52.220;9.884;2022-12-29T13:27:05;0.93;;;0.60;;
16689;SDS011;8458;52.220;9.884;2022-12-29T13:29:40;2.43;;;0.67;;
16689;SDS011;8458;52.220;9.884;2022-12-29T13:32:17;0.90;;;0.53;;
16689;SDS011;8458;52.220;9.884;2022-12-29T13:34:54;1.10;;;0.50;;
16689;SDS011;8458;52.220;9.884;2022-12-29T13:37:33;1.37;;;0.50;;
16689;SDS011;8458;52.220;9.884;2022-12-29T13:40:10;1.03;;;0.60;;
16689;SDS011;8458;52.220;9.884;2022-12-29T13:42:41;1.00;;;0.50;;
16689;SDS011;8458;52.220;9.884;2022-12-29T13:45:10;2.67;;;0.70;;
16689;SDS011;8458;52.220;9.884;2022-12-29T13:47:42;2.87;;;0.70;;
16689;SDS011;8458;52.220;9.884;2022-12-29T13:50:12;1.67;;;0.67;;
16689;SDS011;8458;52.220;9.884;2022-12-29T13:52:43;1.57;;;0.70;;
16689;SDS011;8458;52.220;9.884;2022-12-29T13:55:18;2.27;;;0.70;;
16689;SDS011;8458;52.220;9.884;2022-12-29T13:57:53;1.60;;;0.60;;
16689;SDS011;8458;52.220;9.884;2022-12-29T14:00:27;3.03;;;0.83;;
16689;SDS011;8458;52.220;9.884;2022-12-29T14:03:19;2.70;;;0.60;;
16689;SDS011;8458;52.220;9.884;2022-12-29T14:06:11;2.33;;;0.70;;
16689;SDS011;8458;52.220;9.884;2022-12-29T14:08:41;1.50;;;0.70;;
16689;SDS011;8458;52.220;9.884;2022-12-29T14:11:09;1.53;;;0.57;;
16689;SDS011;8458;52.220;9.884;2022-12-29T14:13:37;1.23;;;0.73;;
16689;SDS011;8458;52.220;9.884;2022-12-29T14:16:06;2.43;;;0.90;;
16689;SDS011;8458;52.220;9.884;2022-12-29T14:18:42;1.97;;;0.83;;
16689;SDS011;8458;52.220;9.884;2022-12-29T14:21:10;1.20;;;0.60;;
16689;SDS011;8458;52.220;9.884;2022-12-29T14:23:47;1.87;;;0.50;;
16689;SDS011;8458;52.220;9.884;2022-12-29T14:26:16;1.70;;;0.60;;
16689;SDS011;8458;52.220;9.884;2022-12-29T14:29:00;2.23;;;0.60;;
16689;SDS011;8458;52.220;9.884;2022-12-29T14:31:42;1.30;;;0.60;;
16689;SDS011;8458;52.220;9.884;2022-12-29T14:34:29;2.00;;;0.60;;
16689;SDS011;8458;52.220;9.884;2022-12-29T14:37:04;1.67;;;0.70;;
16689;SDS011;8458;52.220;9.884;2022-12-29T14:39:59;2.50;;;0.70;;
16689;SDS011;8458;52.220;9.884;2022-12-29T14:42:29;0.77;;;0.57;;
16689;SDS011;8458;52.220;9.884;2022-12-29T14:44:57;1.87;;;0.60;;
16689;SDS011;8458;52.220;9.884;2022-12-29T14:47:31;3.03;;;1.40;;
16689;SDS011;8458;52.220;9.884;2022-12-29T14:50:03;3.13;;;1.37;;
16689;SDS011;8458;52.220;9.884;2022-12-29T14:52:32;3.37;;;1.30;;
16689;SDS011;8458;52.220;9.884;2022-12-29T14:58:03;1.47;;;1.00;;
16689;SDS011;8458;52.220;9.884;2022-12-29T15:00:32;1.50;;;0.67;;
16689;SDS011;8458;52.220;9.884;2022-12-29T15:03:02;2.60;;;0.90;;
16689;SDS011;8458;52.220;9.884;2022-12-29T15:05:34;2.03;;;0.80;;
16689;SDS011;8458;52.220;9.884;2022-12-29T15:08:03;1.70;;;0.77;;
16689;SDS011;8458;52.220;9.884;2022-12-29T15:10:33;2.80;;;0.80;;
16689;SDS011;8458;52.220;9.884;2022-12-29T15:13:05;2.47;;;0.80;;
16689;SDS011;8458;52.220;9.884;2022-12-29T15:15:39;1.73;;;0.73;;
16689;SDS011;8458;52.220;9.884;2022-12-29T15:18:13;3.37;;;0.90;;
16689;SDS011;8458;52.220;9.884;2022-12-29T15:20:49;1.93;;;0.83;;
16689;SDS011;8458;52.220;9.884;2022-12-29T15:23:16;1.93;;;0.80;;
16689;SDS011;8458;52.220;9.884;2022-12-29T15:25:46;2.17;;;0.67;;
16689;SDS011;8458;52.220;9.884;2022-12-29T15:28:15;1.37;;;0.80;;
16689;SDS011;8458;52.220;9.884;2022-12-29T15:30:49;1.87;;;0.80;;
16689;SDS011;8458;52.220;9.884;2022-12-29T15:33:17;0.83;;;0.73;;
16689;SDS011;8458;52.220;9.884;2022-12-29T15:35:49;2.67;;;0.90;;
16689;SDS011;8458;52.220;9.884;2022-12-29T15:38:20;2.53;;;0.80;;